createdAt,value
2018-02-14T00:00:49.494Z,-2.60
2018-02-14T00:03:17.566Z,-2.60
2018-02-14T00:05:45.628Z,-2.60
2018-02-14T00:08:13.713Z,-2.50
2018-02-14T00:10:41.797Z,-2.70
2018-02-14T00:13:09.859Z,-2.50
2018-02-14T00:15:37.925Z,-2.40
2018-02-14T00:18:06.741Z,-2.40
2018-02-14T00:20:34.835Z,-2.30
2018-02-14T00:23:02.917Z,-2.40
2018-02-14T00:25:32.080Z,-2.50
2018-02-14T00:28:01.266Z,-2.60
2018-02-14T00:30:29.382Z,-2.60
2018-02-14T00:32:57.553Z,-2.50
2018-02-14T00:35:25.635Z,-2.40
2018-02-14T00:37:53.694Z,-2.40
2018-02-14T00:40:21.765Z,-2.50
2018-02-14T00:42:49.832Z,-2.50
2018-02-14T00:45:17.942Z,-2.60
2018-02-14T00:47:46.021Z,-2.60
2018-02-14T00:50:14.110Z,-2.50
2018-02-14T00:52:42.169Z,-2.70
2018-02-14T00:55:10.245Z,-2.70
2018-02-14T00:57:38.325Z,-2.60
2018-02-14T01:00:06.451Z,-2.70
2018-02-14T01:02:35.285Z,-2.90
2018-02-14T01:05:03.357Z,-2.90
2018-02-14T01:07:31.765Z,-2.90
2018-02-14T01:09:59.837Z,-3.10
2018-02-14T01:12:27.905Z,-2.90
2018-02-14T01:14:55.975Z,-2.90
2018-02-14T01:17:24.033Z,-2.80
2018-02-14T01:19:58.713Z,-2.80
2018-02-14T01:22:26.862Z,-2.70
2018-02-14T01:24:55.041Z,-2.80
2018-02-14T01:27:23.101Z,-2.60
2018-02-14T01:29:53.086Z,-2.50
2018-02-14T01:32:21.157Z,-2.60
2018-02-14T01:34:50.106Z,-2.70
2018-02-14T01:37:18.172Z,-2.90
2018-02-14T01:39:46.257Z,-2.90
2018-02-14T01:42:14.324Z,-2.90
2018-02-14T01:44:42.397Z,-3.00
2018-02-14T01:47:10.469Z,-2.90
2018-02-14T01:49:38.565Z,-2.90
2018-02-14T01:52:06.657Z,-2.80
2018-02-14T01:54:34.818Z,-3.00
2018-02-14T01:57:02.889Z,-2.90
2018-02-14T01:59:30.961Z,-2.70
2018-02-14T02:01:59.045Z,-2.80
2018-02-14T02:04:27.118Z,-2.70
2018-02-14T02:06:55.194Z,-2.90
2018-02-14T02:09:23.253Z,-3.00
2018-02-14T02:11:52.462Z,-2.90
2018-02-14T02:14:20.528Z,-3.10
2018-02-14T02:16:48.640Z,-3.10
2018-02-14T02:19:16.702Z,-3.10
2018-02-14T02:21:44.885Z,-3.20
2018-02-14T02:24:12.965Z,-3.30
2018-02-14T02:26:41.039Z,-3.20
2018-02-14T02:29:09.097Z,-3.20
2018-02-14T02:31:37.190Z,-3.10
2018-02-14T02:34:05.251Z,-3.20
2018-02-14T02:36:33.335Z,-3.20
2018-02-14T02:39:01.393Z,-3.20
2018-02-14T02:41:29.765Z,-3.20
2018-02-14T02:43:57.822Z,-3.20
2018-02-14T02:46:26.684Z,-3.40
2018-02-14T02:48:54.754Z,-3.40
2018-02-14T02:51:22.930Z,-3.40
2018-02-14T02:53:52.880Z,-3.50
2018-02-14T02:56:20.951Z,-3.50
2018-02-14T02:58:49.034Z,-3.50
2018-02-14T03:01:17.182Z,-3.50
2018-02-14T03:03:45.257Z,-3.50
2018-02-14T03:06:13.437Z,-3.50
2018-02-14T03:08:41.498Z,-3.50
2018-02-14T03:11:09.580Z,-3.50
2018-02-14T03:13:37.657Z,-3.40
2018-02-14T03:16:05.845Z,-3.30
2018-02-14T03:18:33.909Z,-3.50
2018-02-14T03:21:02.058Z,-3.50
2018-02-14T03:23:30.122Z,-3.60
2018-02-14T03:25:58.216Z,-3.70
2018-02-14T03:28:26.277Z,-3.50
2018-02-14T03:30:54.418Z,-3.40
2018-02-14T03:33:22.478Z,-3.60
2018-02-14T03:35:50.634Z,-3.50
2018-02-14T03:38:18.713Z,-3.40
2018-02-14T03:40:46.816Z,-3.40
2018-02-14T03:43:14.879Z,-3.40
2018-02-14T03:45:42.952Z,-3.40
2018-02-14T03:48:11.027Z,-3.50
2018-02-14T03:50:39.181Z,-3.40
2018-02-14T03:53:07.291Z,-3.50
2018-02-14T03:55:35.369Z,-3.40
2018-02-14T03:58:04.706Z,-3.40
2018-02-14T04:00:34.567Z,-3.60
2018-02-14T04:03:03.929Z,-3.60
2018-02-14T04:05:33.910Z,-3.60
2018-02-14T04:08:01.982Z,-3.70
2018-02-14T04:10:30.056Z,-3.70
2018-02-14T04:12:58.141Z,-3.80
2018-02-14T04:15:26.209Z,-3.70
2018-02-14T04:17:54.293Z,-3.60
2018-02-14T04:20:22.370Z,-3.60
2018-02-14T04:22:50.449Z,-3.80
2018-02-14T04:25:18.519Z,-3.80
2018-02-14T04:27:46.593Z,-3.70
2018-02-14T04:30:20.242Z,-3.80
2018-02-14T04:32:49.102Z,-3.70
2018-02-14T04:35:17.170Z,-3.70
2018-02-14T04:37:45.233Z,-3.70
2018-02-14T04:40:13.309Z,-3.60
2018-02-14T04:42:41.512Z,-3.60
2018-02-14T04:45:09.569Z,-3.60
2018-02-14T04:47:37.636Z,-3.70
2018-02-14T04:50:05.726Z,-3.70
2018-02-14T04:52:34.455Z,-3.80
2018-02-14T04:55:02.522Z,-3.70
2018-02-14T04:57:30.678Z,-3.70
2018-02-14T04:59:58.762Z,-3.70
2018-02-14T05:02:26.829Z,-3.80
2018-02-14T05:04:54.914Z,-3.70
2018-02-14T05:07:23.090Z,-3.90
2018-02-14T05:09:52.400Z,-4.00
2018-02-14T05:12:20.573Z,-3.90
2018-02-14T05:14:48.649Z,-3.90
2018-02-14T05:17:16.721Z,-3.90
2018-02-14T05:19:44.797Z,-3.90
2018-02-14T05:22:12.866Z,-4.00
2018-02-14T05:24:40.937Z,-3.90
2018-02-14T05:27:09.063Z,-3.90
2018-02-14T05:29:37.105Z,-3.90
2018-02-14T05:32:05.177Z,-4.00
2018-02-14T05:34:33.248Z,-4.10
2018-02-14T05:37:01.318Z,-4.00
2018-02-14T05:39:29.409Z,-4.20
2018-02-14T05:41:57.491Z,-4.00
2018-02-14T05:44:25.544Z,-3.90
2018-02-14T05:46:53.733Z,-3.90
2018-02-14T05:49:21.802Z,-4.00
2018-02-14T05:51:49.901Z,-4.00
2018-02-14T05:54:17.962Z,-3.90
2018-02-14T05:56:46.045Z,-4.10
2018-02-14T05:59:14.121Z,-3.90
2018-02-14T06:01:42.207Z,-3.90
2018-02-14T06:04:10.343Z,-4.10
2018-02-14T06:06:38.401Z,-4.10
2018-02-14T06:09:07.233Z,-4.00
2018-02-14T06:11:36.224Z,-3.90
2018-02-14T06:14:05.413Z,-4.00
2018-02-14T06:16:33.489Z,-4.00
2018-02-14T06:19:01.545Z,-4.00
2018-02-14T06:21:30.381Z,-3.90
2018-02-14T06:23:58.448Z,-4.00
2018-02-14T06:26:26.516Z,-3.90
2018-02-14T06:28:54.617Z,-3.80
2018-02-14T06:31:22.685Z,-3.80
2018-02-14T06:33:50.753Z,-4.00
2018-02-14T06:36:18.814Z,-3.90
2018-02-14T06:38:46.928Z,-3.90
2018-02-14T06:41:15.014Z,-3.70
2018-02-14T06:43:43.177Z,-3.60
2018-02-14T06:46:11.248Z,-3.60
2018-02-14T06:48:39.340Z,-3.70
2018-02-14T06:51:07.405Z,-3.60
2018-02-14T06:53:36.023Z,-3.60
2018-02-14T06:56:04.175Z,-3.40
2018-02-14T06:58:32.353Z,-3.30
2018-02-14T07:01:00.442Z,-3.20
2018-02-14T07:03:28.522Z,-3.20
2018-02-14T07:05:56.586Z,-3.20
2018-02-14T07:08:24.677Z,-3.20
2018-02-14T07:10:52.750Z,-3.00
2018-02-14T07:13:20.817Z,-3.00
2018-02-14T07:15:48.886Z,-2.70
2018-02-14T07:18:17.073Z,-2.90
2018-02-14T07:20:45.133Z,-2.90
2018-02-14T07:23:13.206Z,-2.70
2018-02-14T07:25:41.274Z,-3.00
2018-02-14T07:28:10.277Z,-2.80
2018-02-14T07:30:39.466Z,-3.10
2018-02-14T07:33:07.569Z,-3.10
2018-02-14T07:35:35.654Z,-3.20
2018-02-14T07:38:03.742Z,-3.10
2018-02-14T07:40:32.583Z,-3.00
2018-02-14T07:43:00.694Z,-3.00
2018-02-14T07:45:28.767Z,-3.00
2018-02-14T07:47:56.933Z,-2.90
2018-02-14T07:50:24.997Z,-2.60
2018-02-14T07:52:53.062Z,-2.70
2018-02-14T07:55:21.113Z,-2.60
2018-02-14T07:57:49.977Z,-2.40
2018-02-14T08:00:18.039Z,-2.30
2018-02-14T08:02:46.109Z,-2.00
2018-02-14T08:05:14.166Z,-2.00
2018-02-14T08:07:42.251Z,-1.90
2018-02-14T08:10:10.318Z,-1.60
2018-02-14T08:12:38.438Z,-1.50
2018-02-14T08:15:06.505Z,-1.60
2018-02-14T08:17:34.588Z,-1.70
2018-02-14T08:20:02.733Z,-1.20
2018-02-14T08:22:30.803Z,-1.20
2018-02-14T08:24:58.874Z,-1.40
2018-02-14T08:27:26.972Z,-1.60
2018-02-14T08:29:55.036Z,-1.60
2018-02-14T08:32:23.109Z,-1.70
2018-02-14T08:34:52.186Z,-1.30
2018-02-14T08:37:21.749Z,-1.00
2018-02-14T08:39:49.822Z,-1.20
2018-02-14T08:42:17.904Z,-1.30
2018-02-14T08:44:45.989Z,-1.10
2018-02-14T08:47:14.171Z,-1.10
2018-02-14T08:49:42.229Z,-0.90
2018-02-14T08:52:11.198Z,-0.80
2018-02-14T08:54:39.282Z,-0.70
2018-02-14T08:57:07.606Z,-0.70
2018-02-14T08:59:35.677Z,-0.40
2018-02-14T09:02:03.748Z,-0.30
2018-02-14T09:04:31.922Z,-0.30
2018-02-14T09:06:59.984Z,-0.30
2018-02-14T09:09:28.073Z,-0.60
2018-02-14T09:11:56.138Z,-0.20
2018-02-14T09:14:24.251Z,0.00
2018-02-14T09:16:52.313Z,-0.10
2018-02-14T09:19:20.383Z,0.20
2018-02-14T09:21:48.433Z,0.20
2018-02-14T09:24:16.498Z,0.30
2018-02-14T09:26:44.552Z,0.30
2018-02-14T09:29:14.245Z,0.40
2018-02-14T09:31:42.305Z,0.60
2018-02-14T09:34:11.593Z,0.80
2018-02-14T09:36:39.670Z,0.60
2018-02-14T09:39:07.749Z,0.40
2018-02-14T09:41:35.808Z,0.80
2018-02-14T09:44:03.862Z,0.90
2018-02-14T09:46:31.914Z,0.70
2018-02-14T09:49:00.737Z,0.80
2018-02-14T09:51:28.801Z,1.00
2018-02-14T09:53:56.861Z,0.90
2018-02-14T09:56:25.717Z,1.00
2018-02-14T09:58:53.781Z,1.10
2018-02-14T10:01:21.834Z,1.20
2018-02-14T10:03:49.946Z,1.20
2018-02-14T10:06:18.010Z,1.30
2018-02-14T10:08:46.067Z,1.50
2018-02-14T10:11:14.121Z,1.60
2018-02-14T10:13:42.927Z,1.70
2018-02-14T10:16:12.086Z,1.10
2018-02-14T10:18:40.158Z,1.30
2018-02-14T10:21:08.214Z,1.60
2018-02-14T10:23:36.270Z,2.00
2018-02-14T10:26:04.313Z,2.20
2018-02-14T10:28:33.134Z,2.20
2018-02-14T10:31:01.186Z,2.00
2018-02-14T10:33:30.011Z,2.10
2018-02-14T10:35:58.116Z,2.30
2018-02-14T10:38:26.206Z,2.30
2018-02-14T10:40:54.265Z,2.20
2018-02-14T10:43:22.331Z,2.60
2018-02-14T10:45:50.380Z,2.40
2018-02-14T10:48:19.306Z,2.30
2018-02-14T10:50:47.357Z,2.20
2018-02-14T10:53:15.422Z,2.40
2018-02-14T10:55:43.531Z,2.40
2018-02-14T10:58:12.559Z,2.90
2018-02-14T11:00:46.203Z,3.10
2018-02-14T11:03:19.861Z,3.10
2018-02-14T11:05:53.606Z,3.10
2018-02-14T11:08:21.733Z,3.30
2018-02-14T11:10:49.805Z,3.40
2018-02-14T11:13:17.857Z,3.90
2018-02-14T11:15:45.949Z,4.50
2018-02-14T11:18:14.034Z,4.50
2018-02-14T11:20:42.729Z,4.80
2018-02-14T11:23:10.777Z,4.70
2018-02-14T11:25:38.829Z,3.60
2018-02-14T11:28:06.886Z,4.10
2018-02-14T11:30:35.715Z,4.10
2018-02-14T11:33:03.830Z,4.20
2018-02-14T11:35:31.908Z,4.40
2018-02-14T11:38:00.633Z,4.20
2018-02-14T11:40:29.463Z,3.90
2018-02-14T11:42:57.505Z,4.30
2018-02-14T11:45:26.370Z,4.80
2018-02-14T11:47:55.193Z,5.10
2018-02-14T11:50:24.027Z,4.80
2018-02-14T11:52:53.139Z,4.80
2018-02-14T11:55:21.212Z,5.30
2018-02-14T11:57:49.265Z,5.70
2018-02-14T12:00:17.481Z,6.10
2018-02-14T12:02:45.642Z,5.60
2018-02-14T12:05:13.709Z,5.10
2018-02-14T12:07:41.806Z,5.00
2018-02-14T12:10:09.883Z,5.00
2018-02-14T12:12:37.938Z,5.00
2018-02-14T12:15:05.990Z,5.10
2018-02-14T12:17:34.107Z,5.40
2018-02-14T12:20:02.182Z,5.90
2018-02-14T12:22:30.226Z,5.70
2018-02-14T12:24:58.337Z,6.10
2018-02-14T12:27:26.407Z,6.20
2018-02-14T12:29:54.454Z,6.40
2018-02-14T12:32:22.538Z,6.50
2018-02-14T12:34:50.605Z,5.60
2018-02-14T12:37:18.662Z,5.20
2018-02-14T12:39:47.472Z,5.30
2018-02-14T12:42:15.529Z,5.60
2018-02-14T12:44:43.770Z,5.90
2018-02-14T12:47:11.825Z,6.30
2018-02-14T12:49:39.892Z,7.10
2018-02-14T12:52:07.964Z,7.10
2018-02-14T12:54:36.009Z,7.10
2018-02-14T12:57:04.842Z,6.30
2018-02-14T12:59:32.933Z,6.20
2018-02-14T13:02:01.011Z,6.80
2018-02-14T13:04:29.159Z,7.30
2018-02-14T13:06:57.271Z,8.20
2018-02-14T13:09:25.426Z,8.30
2018-02-14T13:11:53.488Z,7.80
2018-02-14T13:14:21.613Z,7.40
2018-02-14T13:16:49.786Z,7.60
2018-02-14T13:19:17.849Z,8.30
2018-02-14T13:21:45.906Z,8.70
2018-02-14T13:24:14.996Z,9.20
2018-02-14T13:26:44.183Z,9.10
2018-02-14T13:29:14.149Z,9.60
2018-02-14T13:31:42.239Z,10.90
2018-02-14T13:34:10.411Z,10.60
2018-02-14T13:36:38.478Z,9.40
2018-02-14T13:39:06.554Z,7.50
2018-02-14T13:41:34.641Z,7.70
2018-02-14T13:44:02.693Z,8.30
2018-02-14T13:46:30.767Z,8.30
2018-02-14T13:48:58.829Z,9.00
2018-02-14T13:51:26.946Z,10.10
2018-02-14T13:53:55.217Z,9.40
2018-02-14T13:56:23.277Z,9.00
2018-02-14T13:58:52.459Z,10.20
2018-02-14T14:01:20.541Z,11.50
2018-02-14T14:03:48.605Z,10.80
2018-02-14T14:06:16.680Z,10.70
2018-02-14T14:08:45.521Z,10.90
2018-02-14T14:11:14.709Z,9.10
2018-02-14T14:13:42.765Z,8.90
2018-02-14T14:16:10.842Z,9.50
2018-02-14T14:18:38.898Z,9.20
2018-02-14T14:21:07.730Z,8.80
2018-02-14T14:23:35.826Z,8.40
2018-02-14T14:26:03.901Z,7.10
2018-02-14T14:28:31.967Z,6.80
2018-02-14T14:31:00.030Z,6.30
2018-02-14T14:33:28.131Z,5.40
2018-02-14T14:35:56.201Z,5.50
2018-02-14T14:38:24.394Z,5.70
2018-02-14T14:40:52.446Z,6.30
2018-02-14T14:43:20.544Z,6.20
2018-02-14T14:45:48.571Z,5.50
2018-02-14T14:48:16.653Z,5.10
2018-02-14T14:50:46.106Z,5.00
2018-02-14T14:53:15.393Z,5.20
2018-02-14T14:55:43.457Z,5.10
2018-02-14T14:58:11.530Z,4.40
2018-02-14T15:00:39.700Z,4.50
2018-02-14T15:03:07.769Z,4.10
2018-02-14T15:05:35.873Z,3.80
2018-02-14T15:08:03.937Z,3.60
2018-02-14T15:10:32.000Z,3.20
2018-02-14T15:13:00.127Z,2.60
2018-02-14T15:15:28.181Z,2.30
2018-02-14T15:17:56.258Z,2.20
2018-02-14T15:20:24.333Z,2.20
2018-02-14T15:22:52.450Z,2.20
2018-02-14T15:25:21.305Z,2.00
2018-02-14T15:27:49.408Z,1.80
2018-02-14T15:30:17.476Z,1.80
2018-02-14T15:32:46.634Z,1.90
2018-02-14T15:35:15.857Z,1.90
2018-02-14T15:37:43.930Z,1.80
2018-02-14T15:40:12.024Z,1.60
2018-02-14T15:42:40.070Z,1.60
2018-02-14T15:45:09.978Z,1.50
2018-02-14T15:47:38.038Z,1.50
2018-02-14T15:50:06.872Z,1.50
2018-02-14T15:52:35.023Z,1.50
2018-02-14T15:55:03.147Z,1.50
2018-02-14T15:57:31.317Z,1.30
2018-02-14T15:59:59.377Z,1.50
2018-02-14T16:02:27.462Z,1.50
2018-02-14T16:04:55.558Z,1.60
2018-02-14T16:07:23.631Z,1.50
2018-02-14T16:09:52.211Z,1.40
2018-02-14T16:12:20.389Z,1.40
2018-02-14T16:14:48.445Z,1.30
2018-02-14T16:17:16.609Z,1.30
2018-02-14T16:19:44.673Z,1.10
2018-02-14T16:22:12.732Z,1.00
2018-02-14T16:24:41.570Z,1.00
2018-02-14T16:27:09.661Z,0.90
2018-02-14T16:29:37.721Z,0.90
2018-02-14T16:32:05.800Z,1.10
2018-02-14T16:34:33.859Z,0.90
2018-02-14T16:37:01.937Z,0.90
2018-02-14T16:39:30.005Z,0.90
2018-02-14T16:41:58.057Z,0.70
2018-02-14T16:44:26.886Z,0.80
2018-02-14T16:46:54.983Z,0.70
2018-02-14T16:49:23.777Z,0.70
2018-02-14T16:51:52.377Z,0.70
2018-02-14T16:54:20.553Z,0.70
2018-02-14T16:56:48.626Z,0.60
2018-02-14T16:59:18.271Z,0.60
2018-02-14T17:01:47.814Z,0.50
2018-02-14T17:04:17.022Z,0.50
2018-02-14T17:06:45.137Z,0.50
2018-02-14T17:09:13.207Z,0.50
2018-02-14T17:11:41.270Z,0.50
2018-02-14T17:14:09.354Z,0.50
2018-02-14T17:16:37.422Z,0.50
2018-02-14T17:19:05.502Z,0.40
2018-02-14T17:21:33.568Z,0.40
2018-02-14T17:24:01.646Z,0.30
2018-02-14T17:26:29.747Z,0.30
2018-02-14T17:28:57.830Z,0.30
2018-02-14T17:31:25.894Z,0.30
2018-02-14T17:33:53.992Z,0.40
2018-02-14T17:36:22.168Z,0.30
2018-02-14T17:38:50.231Z,0.30
2018-02-14T17:41:18.294Z,0.40
2018-02-14T17:43:47.482Z,0.20
2018-02-14T17:46:15.550Z,0.20
2018-02-14T17:48:43.660Z,0.20
2018-02-14T17:51:11.713Z,0.20
2018-02-14T17:53:39.785Z,0.20
2018-02-14T17:56:07.896Z,0.20
2018-02-14T17:58:35.974Z,0.20
2018-02-14T18:01:04.142Z,0.20
2018-02-14T18:03:33.044Z,0.10
2018-02-14T18:06:01.119Z,0.10
2018-02-14T18:08:29.190Z,0.00
2018-02-14T18:10:57.265Z,0.30
2018-02-14T18:13:25.346Z,0.10
2018-02-14T18:15:53.418Z,0.20
2018-02-14T18:18:21.594Z,0.10
2018-02-14T18:20:49.657Z,0.00
2018-02-14T18:23:18.294Z,0.00
2018-02-14T18:25:48.350Z,0.00
2018-02-14T18:28:16.458Z,-0.10
2018-02-14T18:30:44.522Z,-0.10
2018-02-14T18:33:12.609Z,0.00
2018-02-14T18:35:40.690Z,-0.10
2018-02-14T18:38:08.869Z,-0.10
2018-02-14T18:40:37.050Z,-0.20
2018-02-14T18:43:05.135Z,-0.20
2018-02-14T18:45:33.202Z,-0.10
2018-02-14T18:48:01.263Z,0.00
2018-02-14T18:50:29.357Z,-0.20
2018-02-14T18:52:57.414Z,-0.20
2018-02-14T18:55:25.489Z,-0.10
2018-02-14T18:57:53.576Z,-0.30
2018-02-14T19:00:21.762Z,-0.20
2018-02-14T19:02:49.825Z,-0.30
2018-02-14T19:05:19.629Z,-0.30
2018-02-14T19:07:48.815Z,-0.20
2018-02-14T19:10:16.931Z,-0.20
2018-02-14T19:12:44.994Z,-0.20
2018-02-14T19:15:13.084Z,-0.30
2018-02-14T19:17:41.141Z,0.00
2018-02-14T19:20:09.341Z,-0.20
2018-02-14T19:22:37.409Z,-0.30
2018-02-14T19:25:05.481Z,-0.20
2018-02-14T19:27:33.554Z,-0.10
2018-02-14T19:30:01.621Z,-0.10
2018-02-14T19:32:29.697Z,-0.20
2018-02-14T19:34:57.757Z,-0.10
2018-02-14T19:37:25.838Z,-0.30
2018-02-14T19:39:53.902Z,-0.50
2018-02-14T19:42:21.984Z,-0.50
2018-02-14T19:44:50.038Z,-0.50
2018-02-14T19:47:20.002Z,-0.60
2018-02-14T19:49:48.062Z,-0.70
2018-02-14T19:52:16.150Z,-0.60
2018-02-14T19:54:44.243Z,-0.50
2018-02-14T19:57:12.423Z,-0.60
2018-02-14T19:59:40.500Z,-0.60
2018-02-14T20:02:09.462Z,-0.40
2018-02-14T20:04:37.518Z,-0.50
2018-02-14T20:07:06.470Z,-0.60
2018-02-14T20:09:34.537Z,-0.70
2018-02-14T20:12:02.609Z,-0.60
2018-02-14T20:14:30.679Z,-0.70
2018-02-14T20:16:58.743Z,-0.70
2018-02-14T20:19:26.858Z,-0.70
2018-02-14T20:21:54.918Z,-0.70
2018-02-14T20:24:22.994Z,-1.00
2018-02-14T20:26:52.177Z,-0.90
2018-02-14T20:29:20.278Z,-0.80
2018-02-14T20:31:48.341Z,-0.80
2018-02-14T20:34:16.429Z,-0.90
2018-02-14T20:36:44.493Z,-1.00
2018-02-14T20:39:12.565Z,-1.20
2018-02-14T20:41:40.631Z,-1.30
2018-02-14T20:44:08.734Z,-1.20
2018-02-14T20:46:36.813Z,-1.10
2018-02-14T20:49:04.989Z,-1.00
2018-02-14T20:51:33.066Z,-1.00
2018-02-14T20:54:01.150Z,-0.70
2018-02-14T20:56:29.213Z,-0.70
2018-02-14T20:58:57.278Z,-0.60
2018-02-14T21:01:25.379Z,-0.60
2018-02-14T21:03:53.453Z,-0.70
2018-02-14T21:06:21.525Z,-0.90
2018-02-14T21:08:50.718Z,-1.10
2018-02-14T21:11:18.909Z,-1.20
2018-02-14T21:13:46.988Z,-1.30
2018-02-14T21:16:15.042Z,-1.20
2018-02-14T21:18:43.141Z,-1.40
2018-02-14T21:21:11.202Z,-1.40
2018-02-14T21:23:39.263Z,-1.40
2018-02-14T21:26:07.334Z,-1.40
2018-02-14T21:28:35.410Z,-1.40
2018-02-14T21:31:03.559Z,-1.50
2018-02-14T21:33:31.590Z,-1.40
2018-02-14T21:35:59.674Z,-1.50
2018-02-14T21:38:27.758Z,-1.40
2018-02-14T21:40:55.817Z,-1.40
2018-02-14T21:43:25.005Z,-1.40
2018-02-14T21:45:53.081Z,-1.30
2018-02-14T21:48:21.161Z,-1.30
2018-02-14T21:50:49.227Z,-1.40
2018-02-14T21:53:17.321Z,-1.40
2018-02-14T21:55:46.039Z,-1.70
2018-02-14T21:58:14.922Z,-1.80
2018-02-14T22:00:43.102Z,-1.70
2018-02-14T22:03:11.174Z,-1.60
2018-02-14T22:05:39.246Z,-1.60
2018-02-14T22:08:07.320Z,-1.70
2018-02-14T22:10:35.392Z,-1.60
2018-02-14T22:13:03.457Z,-1.50
2018-02-14T22:15:31.521Z,-1.60
2018-02-14T22:18:00.366Z,-1.70
2018-02-14T22:20:28.442Z,-1.90
2018-02-14T22:22:56.515Z,-1.80
2018-02-14T22:25:25.707Z,-2.00
2018-02-14T22:27:53.765Z,-2.10
2018-02-14T22:30:21.958Z,-2.10
2018-02-14T22:32:50.145Z,-2.00
2018-02-14T22:35:18.214Z,-2.10
2018-02-14T22:37:46.273Z,-2.10
2018-02-14T22:40:14.350Z,-2.10
2018-02-14T22:42:42.437Z,-2.10
2018-02-14T22:45:10.510Z,-2.20
2018-02-14T22:47:38.574Z,-2.30
2018-02-14T22:50:06.656Z,-2.20
2018-02-14T22:52:34.718Z,-2.10
2018-02-14T22:55:02.796Z,-2.20
2018-02-14T22:57:30.860Z,-2.30
2018-02-14T22:59:58.941Z,-2.30
2018-02-14T23:02:27.462Z,-2.40
2018-02-14T23:04:56.396Z,-2.30
2018-02-14T23:07:26.378Z,-2.50
2018-02-14T23:09:54.925Z,-2.40
2018-02-14T23:12:23.280Z,-2.40
2018-02-14T23:14:52.918Z,-2.30
2018-02-14T23:17:20.995Z,-2.50
2018-02-14T23:19:49.057Z,-2.40
2018-02-14T23:22:18.002Z,-2.60
2018-02-14T23:24:46.078Z,-2.60
2018-02-14T23:27:14.253Z,-2.70
2018-02-14T23:29:42.347Z,-2.80
2018-02-14T23:32:10.409Z,-2.80
2018-02-14T23:34:38.483Z,-2.80
2018-02-14T23:37:06.563Z,-2.80
2018-02-14T23:39:34.652Z,-2.80
2018-02-14T23:42:02.714Z,-2.90
2018-02-14T23:44:30.778Z,-2.90
2018-02-14T23:46:58.865Z,-2.90
2018-02-14T23:49:26.933Z,-2.80
2018-02-14T23:51:55.034Z,-2.80
2018-02-14T23:54:23.110Z,-2.80
2018-02-14T23:56:52.323Z,-2.90
2018-02-14T23:59:20.477Z,-3.00
